createdAt,value
2019-05-15T00:02:27.924Z,5.63
2019-05-15T00:05:00.631Z,5.83
2019-05-15T00:07:33.236Z,5.72
2019-05-15T00:10:08.536Z,5.94
2019-05-15T00:12:40.376Z,5.87
2019-05-15T00:15:13.248Z,5.87
2019-05-15T00:17:45.131Z,5.75
2019-05-15T00:20:20.077Z,5.84
2019-05-15T00:22:52.118Z,5.78
2019-05-15T00:25:24.786Z,5.75
2019-05-15T00:27:58.248Z,5.70
2019-05-15T00:30:31.040Z,5.60
2019-05-15T00:33:03.581Z,5.46
2019-05-15T00:35:38.987Z,5.35
2019-05-15T00:38:10.673Z,5.35
2019-05-15T00:40:44.220Z,5.37
2019-05-15T00:43:18.287Z,5.42
2019-05-15T00:45:51.027Z,5.40
2019-05-15T00:48:23.622Z,5.39
2019-05-15T00:50:56.298Z,5.28
2019-05-15T00:53:28.903Z,5.42
2019-05-15T00:56:01.654Z,5.38
2019-05-15T00:58:34.226Z,5.19
2019-05-15T01:01:08.317Z,5.21
2019-05-15T01:03:41.046Z,5.22
2019-05-15T01:06:13.696Z,5.33
2019-05-15T01:08:48.294Z,5.25
2019-05-15T01:11:20.921Z,5.15
2019-05-15T01:13:53.596Z,5.23
2019-05-15T01:16:28.126Z,5.25
2019-05-15T01:19:00.852Z,5.13
2019-05-15T01:21:33.514Z,5.17
2019-05-15T01:24:08.283Z,5.11
2019-05-15T01:26:40.472Z,5.06
2019-05-15T01:29:13.159Z,5.05
2019-05-15T01:31:45.854Z,4.97
2019-05-15T01:34:18.656Z,5.02
2019-05-15T01:36:51.297Z,4.82
2019-05-15T01:39:23.949Z,4.90
2019-05-15T01:41:58.497Z,4.92
2019-05-15T01:44:30.930Z,4.77
2019-05-15T01:47:08.412Z,4.60
2019-05-15T01:49:40.520Z,4.47
2019-05-15T01:52:13.206Z,4.44
2019-05-15T01:54:45.787Z,4.33
2019-05-15T01:57:18.386Z,4.45
2019-05-15T01:59:57.168Z,4.40
2019-05-15T02:02:25.287Z,4.14
2019-05-15T02:04:59.168Z,4.22
2019-05-15T02:07:31.926Z,3.84
2019-05-15T02:10:05.240Z,3.96
2019-05-15T02:12:38.801Z,3.88
2019-05-15T02:15:12.566Z,3.72
2019-05-15T02:17:45.395Z,3.91
2019-05-15T02:20:18.709Z,3.88
2019-05-15T02:22:51.477Z,3.88
2019-05-15T02:25:24.106Z,3.92
2019-05-15T02:27:58.701Z,4.15
2019-05-15T02:30:34.076Z,4.16
2019-05-15T02:33:05.317Z,4.12
2019-05-15T02:35:39.257Z,4.23
2019-05-15T02:38:15.414Z,4.24
2019-05-15T02:40:49.302Z,4.30
2019-05-15T02:43:20.964Z,4.45
2019-05-15T02:45:53.637Z,4.42
2019-05-15T02:48:28.936Z,4.34
2019-05-15T02:51:00.842Z,4.39
2019-05-15T02:53:33.609Z,4.09
2019-05-15T02:56:09.177Z,4.22
2019-05-15T02:58:40.911Z,4.16
2019-05-15T03:01:13.762Z,3.89
2019-05-15T03:03:49.427Z,3.80
2019-05-15T03:06:20.707Z,3.98
2019-05-15T03:08:53.412Z,4.09
2019-05-15T03:11:29.256Z,4.23
2019-05-15T03:14:00.828Z,4.26
2019-05-15T03:16:34.366Z,4.24
2019-05-15T03:19:10.005Z,4.30
2019-05-15T03:21:41.227Z,4.15
2019-05-15T03:24:14.029Z,4.16
2019-05-15T03:26:45.863Z,4.05
2019-05-15T03:29:21.211Z,4.02
2019-05-15T03:32:13.566Z,4.18
2019-05-15T03:34:36.545Z,4.16
2019-05-15T03:37:03.309Z,4.17
2019-05-15T03:39:39.060Z,4.08
2019-05-15T03:42:10.662Z,4.03
2019-05-15T03:44:43.343Z,4.06
2019-05-15T03:47:15.934Z,4.09
2019-05-15T03:49:49.414Z,4.03
2019-05-15T03:52:21.785Z,4.04
2019-05-15T03:54:54.416Z,4.09
2019-05-15T03:57:30.195Z,4.08
2019-05-15T04:00:01.379Z,3.92
2019-05-15T04:02:34.025Z,4.08
2019-05-15T04:05:11.206Z,4.22
2019-05-15T04:07:41.891Z,4.28
2019-05-15T04:10:15.001Z,4.40
2019-05-15T04:12:49.314Z,4.42
2019-05-15T04:15:22.292Z,4.42
2019-05-15T04:17:54.964Z,4.45
2019-05-15T04:20:29.700Z,4.49
2019-05-15T04:23:01.912Z,4.51
2019-05-15T04:25:38.869Z,4.49
2019-05-15T04:28:13.582Z,4.43
2019-05-15T04:30:46.179Z,4.41
2019-05-15T04:33:19.865Z,4.57
2019-05-15T04:35:52.726Z,4.61
2019-05-15T04:38:25.373Z,4.66
2019-05-15T04:40:59.122Z,4.69
2019-05-15T04:43:39.751Z,4.84
2019-05-15T04:46:09.527Z,4.80
2019-05-15T04:48:40.556Z,4.81
2019-05-15T04:51:13.178Z,4.87
2019-05-15T04:53:49.911Z,4.87
2019-05-15T04:56:20.363Z,4.88
2019-05-15T04:58:53.034Z,5.01
2019-05-15T05:01:28.687Z,5.15
2019-05-15T05:04:00.130Z,5.29
2019-05-15T05:06:33.112Z,5.42
2019-05-15T05:09:09.181Z,5.55
2019-05-15T05:11:41.580Z,5.73
2019-05-15T05:14:14.350Z,5.55
2019-05-15T05:16:48.838Z,5.35
2019-05-15T05:19:21.430Z,5.29
2019-05-15T05:21:54.639Z,5.29
2019-05-15T05:24:28.121Z,5.24
2019-05-15T05:27:00.942Z,5.23
2019-05-15T05:29:33.527Z,5.28
2019-05-15T05:32:08.944Z,5.27
2019-05-15T05:34:41.917Z,5.31
2019-05-15T05:37:14.851Z,5.31
2019-05-15T05:39:48.371Z,5.32
2019-05-15T05:42:21.777Z,5.43
2019-05-15T05:44:54.487Z,5.45
2019-05-15T05:47:28.730Z,5.45
2019-05-15T05:50:01.831Z,5.47
2019-05-15T05:52:34.830Z,5.52
2019-05-15T05:55:08.813Z,5.67
2019-05-15T05:57:42.063Z,5.57
2019-05-15T06:00:18.205Z,5.70
2019-05-15T06:02:52.286Z,5.80
2019-05-15T06:05:25.052Z,5.90
2019-05-15T06:07:58.266Z,6.12
2019-05-15T06:10:30.862Z,6.27
2019-05-15T06:13:03.475Z,6.48
2019-05-15T06:15:37.999Z,6.63
2019-05-15T06:18:10.966Z,6.79
2019-05-15T06:20:43.658Z,6.66
2019-05-15T06:23:23.895Z,6.50
2019-05-15T06:25:51.716Z,6.59
2019-05-15T06:28:24.402Z,6.46
2019-05-15T06:31:00.624Z,6.82
2019-05-15T06:33:31.488Z,6.84
2019-05-15T06:36:04.045Z,7.32
2019-05-15T06:38:39.165Z,7.34
2019-05-15T06:41:11.573Z,7.89
2019-05-15T06:43:44.287Z,7.59
2019-05-15T06:46:18.692Z,7.73
2019-05-15T06:48:51.238Z,7.63
2019-05-15T06:51:24.163Z,7.60
2019-05-15T06:53:58.344Z,7.64
2019-05-15T06:56:31.224Z,7.62
2019-05-15T06:59:03.884Z,7.83
2019-05-15T07:01:38.530Z,7.70
2019-05-15T07:04:11.267Z,8.22
2019-05-15T07:06:43.841Z,8.10
2019-05-15T07:09:17.927Z,8.15
2019-05-15T07:11:50.769Z,8.23
2019-05-15T07:14:23.542Z,8.45
2019-05-15T07:16:59.032Z,9.02
2019-05-15T07:19:30.884Z,9.10
2019-05-15T07:22:13.892Z,9.26
2019-05-15T07:24:47.759Z,9.36
2019-05-15T07:27:20.594Z,9.63
2019-05-15T07:29:53.296Z,9.11
2019-05-15T07:32:28.377Z,9.39
2019-05-15T07:35:00.477Z,10.07
2019-05-15T07:37:33.138Z,9.36
2019-05-15T07:40:08.394Z,9.18
2019-05-15T07:42:41.256Z,10.33
2019-05-15T07:45:14.580Z,10.56
2019-05-15T07:47:48.992Z,9.35
2019-05-15T07:50:21.753Z,9.03
2019-05-15T07:52:54.500Z,8.81
2019-05-15T07:55:29.533Z,9.01
2019-05-15T07:58:01.419Z,9.14
2019-05-15T08:00:34.503Z,8.82
2019-05-15T08:03:10.186Z,8.88
2019-05-15T08:05:54.985Z,8.96
2019-05-15T08:08:18.216Z,10.16
2019-05-15T08:10:50.341Z,9.89
2019-05-15T08:13:23.029Z,10.05
2019-05-15T08:15:57.864Z,10.32
2019-05-15T08:18:30.122Z,9.92
2019-05-15T08:21:02.936Z,10.55
2019-05-15T08:23:35.691Z,11.86
2019-05-15T08:26:08.934Z,10.98
2019-05-15T08:28:41.867Z,12.22
2019-05-15T08:31:14.589Z,12.80
2019-05-15T08:33:48.225Z,14.91
2019-05-15T08:36:21.093Z,14.52
2019-05-15T08:38:53.832Z,13.73
2019-05-15T08:41:26.521Z,15.01
2019-05-15T08:43:59.243Z,14.50
2019-05-15T08:46:32.035Z,13.80
2019-05-15T08:49:04.763Z,12.18
2019-05-15T08:51:38.112Z,11.65
2019-05-15T08:54:10.940Z,10.66
2019-05-15T08:56:43.605Z,10.02
2019-05-15T08:59:18.735Z,10.04
2019-05-15T09:01:50.874Z,9.94
2019-05-15T09:04:30.740Z,9.63
2019-05-15T09:07:01.179Z,9.67
2019-05-15T09:09:32.068Z,9.82
2019-05-15T09:12:04.781Z,10.01
2019-05-15T09:14:38.043Z,10.44
2019-05-15T09:17:10.864Z,10.23
2019-05-15T09:19:43.667Z,10.18
2019-05-15T09:22:18.785Z,10.53
2019-05-15T09:24:51.138Z,10.47
2019-05-15T09:27:23.812Z,11.15
2019-05-15T09:29:59.008Z,11.29
2019-05-15T09:32:31.023Z,11.31
2019-05-15T09:35:04.010Z,11.83
2019-05-15T09:37:38.553Z,11.76
2019-05-15T09:40:11.812Z,11.92
2019-05-15T09:42:44.556Z,11.49
2019-05-15T09:45:17.963Z,11.47
2019-05-15T09:47:50.771Z,11.07
2019-05-15T09:50:23.683Z,10.84
2019-05-15T09:52:58.728Z,10.71
2019-05-15T09:55:30.902Z,11.08
2019-05-15T09:58:03.636Z,11.01
2019-05-15T10:00:38.596Z,11.24
2019-05-15T10:03:11.541Z,11.32
2019-05-15T10:05:44.264Z,11.52
2019-05-15T10:08:17.076Z,11.25
2019-05-15T10:10:49.888Z,11.24
2019-05-15T10:13:22.629Z,11.38
2019-05-15T10:15:55.406Z,11.65
2019-05-15T10:18:28.391Z,12.57
2019-05-15T10:21:01.253Z,13.00
2019-05-15T10:23:33.901Z,12.95
2019-05-15T10:26:13.171Z,12.54
2019-05-15T10:28:41.222Z,12.42
2019-05-15T10:31:14.054Z,11.97
2019-05-15T10:33:48.956Z,12.11
2019-05-15T10:36:21.266Z,12.19
2019-05-15T10:38:53.974Z,12.55
2019-05-15T10:41:28.141Z,12.35
2019-05-15T10:44:01.010Z,13.33
2019-05-15T10:46:33.751Z,13.34
2019-05-15T10:49:08.695Z,13.62
2019-05-15T10:51:40.967Z,13.50
2019-05-15T10:54:13.694Z,12.86
2019-05-15T10:56:46.358Z,13.19
2019-05-15T10:59:19.213Z,13.23
2019-05-15T11:01:51.949Z,12.44
2019-05-15T11:04:24.702Z,12.90
2019-05-15T11:06:58.128Z,14.53
2019-05-15T11:09:30.986Z,15.84
2019-05-15T11:12:03.806Z,16.06
2019-05-15T11:14:37.967Z,15.86
2019-05-15T11:17:10.807Z,15.84
2019-05-15T11:19:43.441Z,15.79
2019-05-15T11:22:18.265Z,15.59
2019-05-15T11:24:52.998Z,16.16
2019-05-15T11:27:27.972Z,16.68
2019-05-15T11:29:59.531Z,16.07
2019-05-15T11:32:32.356Z,15.93
2019-05-15T11:35:05.345Z,15.98
2019-05-15T11:37:45.605Z,15.44
2019-05-15T11:40:14.376Z,16.20
2019-05-15T11:42:48.763Z,16.36
2019-05-15T11:45:22.079Z,16.92
2019-05-15T11:47:54.901Z,16.93
2019-05-15T11:50:29.350Z,17.21
2019-05-15T11:53:03.079Z,16.27
2019-05-15T11:55:38.453Z,17.26
2019-05-15T11:58:10.457Z,16.71
2019-05-15T12:00:43.193Z,16.46
2019-05-15T12:03:18.558Z,17.19
2019-05-15T12:05:50.315Z,16.76
2019-05-15T12:08:23.098Z,15.28
2019-05-15T12:10:58.818Z,15.29
2019-05-15T12:13:30.175Z,13.98
2019-05-15T12:16:02.832Z,15.77
2019-05-15T12:18:35.603Z,15.63
2019-05-15T12:21:08.354Z,16.82
2019-05-15T12:23:41.132Z,16.54
2019-05-15T12:26:13.933Z,15.65
2019-05-15T12:28:48.976Z,14.93
2019-05-15T12:31:24.529Z,15.34
2019-05-15T12:33:55.528Z,14.73
2019-05-15T12:36:50.161Z,14.43
2019-05-15T13:02:11.225Z,13.65
2019-05-15T13:04:43.927Z,13.42
2019-05-15T13:07:19.736Z,15.15
2019-05-15T13:09:51.107Z,14.38
2019-05-15T13:12:23.789Z,16.25
2019-05-15T13:14:58.894Z,17.97
2019-05-15T13:17:30.889Z,16.58
2019-05-15T13:20:03.682Z,17.69
2019-05-15T13:22:39.133Z,17.27
2019-05-15T13:25:12.438Z,16.02
2019-05-15T13:27:45.327Z,14.46
2019-05-15T13:30:18.973Z,13.63
2019-05-15T13:32:51.699Z,13.32
2019-05-15T13:35:24.467Z,12.83
2019-05-15T13:37:58.650Z,14.35
2019-05-15T13:40:37.654Z,17.26
2019-05-15T13:43:08.320Z,16.27
2019-05-15T13:45:40.502Z,14.86
2019-05-15T13:48:16.404Z,14.09
2019-05-15T13:50:48.298Z,13.34
2019-05-15T13:53:21.189Z,12.97
2019-05-15T13:55:54.024Z,12.71
2019-05-15T13:58:28.278Z,12.85
2019-05-15T14:01:01.113Z,12.85
2019-05-15T14:03:34.203Z,13.17
2019-05-15T14:06:09.414Z,13.48
2019-05-15T14:08:41.449Z,13.22
2019-05-15T14:11:14.257Z,13.26
2019-05-15T14:13:48.590Z,13.18
2019-05-15T14:16:21.414Z,12.55
2019-05-15T14:18:54.289Z,12.46
2019-05-15T14:21:28.536Z,12.38
2019-05-15T14:24:01.624Z,11.97
2019-05-15T14:26:34.780Z,12.02
2019-05-15T14:29:08.976Z,12.43
2019-05-15T14:31:41.937Z,12.57
2019-05-15T14:34:14.671Z,12.38
2019-05-15T14:36:48.322Z,12.24
2019-05-15T14:39:21.223Z,12.20
2019-05-15T14:41:53.937Z,12.04
2019-05-15T14:44:26.793Z,12.03
2019-05-15T14:46:59.716Z,12.12
2019-05-15T14:49:35.155Z,12.18
2019-05-15T14:52:09.307Z,12.50
2019-05-15T14:54:41.624Z,12.70
2019-05-15T14:57:14.380Z,12.81
2019-05-15T14:59:48.821Z,13.02
2019-05-15T15:02:21.484Z,12.93
2019-05-15T15:04:54.334Z,13.05
2019-05-15T15:07:28.264Z,12.93
2019-05-15T15:10:01.220Z,12.49
2019-05-15T15:12:34.072Z,12.83
2019-05-15T15:15:09.996Z,12.73
2019-05-15T15:17:41.981Z,12.84
2019-05-15T15:20:14.873Z,12.92
2019-05-15T15:22:48.490Z,12.85
2019-05-15T15:25:21.488Z,12.63
2019-05-15T15:27:54.462Z,12.68
2019-05-15T15:30:29.331Z,12.78
2019-05-15T15:33:01.643Z,12.60
2019-05-15T15:35:34.345Z,13.00
2019-05-15T15:38:12.680Z,12.71
2019-05-15T15:40:41.669Z,12.85
2019-05-15T15:43:14.457Z,12.83
2019-05-15T15:45:48.426Z,12.15
2019-05-15T15:48:21.158Z,12.01
2019-05-15T15:50:53.924Z,12.06
2019-05-15T15:53:28.655Z,11.91
2019-05-15T15:56:01.192Z,12.16
2019-05-15T15:58:33.920Z,12.11
2019-05-15T16:01:09.155Z,12.36
2019-05-15T16:03:42.580Z,12.54
2019-05-15T16:06:15.497Z,12.68
2019-05-15T16:08:55.052Z,12.27
2019-05-15T16:11:22.857Z,12.24
2019-05-15T16:13:57.948Z,12.54
2019-05-15T16:16:30.304Z,12.50
2019-05-15T16:19:02.965Z,12.66
2019-05-15T16:21:35.926Z,12.08
2019-05-15T16:24:17.244Z,12.02
2019-05-15T16:26:43.122Z,11.64
2019-05-15T16:29:16.253Z,11.93
2019-05-15T16:31:50.298Z,12.13
2019-05-15T16:34:23.064Z,12.16
2019-05-15T16:36:58.262Z,12.24
2019-05-15T16:39:30.140Z,12.02
2019-05-15T16:42:02.849Z,11.86
2019-05-15T16:44:38.176Z,11.74
2019-05-15T16:47:09.983Z,11.71
2019-05-15T16:49:42.737Z,11.43
2019-05-15T16:52:16.216Z,11.59
2019-05-15T16:54:50.849Z,11.42
2019-05-15T16:57:23.564Z,11.28
2019-05-15T16:59:58.383Z,11.17
2019-05-15T17:02:32.289Z,11.20
2019-05-15T17:05:05.131Z,11.70
2019-05-15T17:07:38.912Z,12.32
2019-05-15T17:10:13.335Z,12.40
2019-05-15T17:12:46.062Z,11.81
2019-05-15T17:15:19.425Z,11.20
2019-05-15T17:17:52.404Z,10.82
2019-05-15T17:20:25.113Z,10.62
2019-05-15T17:22:58.095Z,10.68
2019-05-15T17:25:30.780Z,10.58
2019-05-15T17:28:03.559Z,10.66
2019-05-15T17:30:38.285Z,10.66
2019-05-15T17:33:11.197Z,10.75
2019-05-15T17:35:43.876Z,10.76
2019-05-15T17:38:18.348Z,10.69
2019-05-15T17:40:51.222Z,10.81
2019-05-15T17:43:24.052Z,10.97
2019-05-15T17:45:58.245Z,10.94
2019-05-15T17:48:31.217Z,11.07
2019-05-15T17:51:04.035Z,11.15
2019-05-15T17:53:38.227Z,11.20
2019-05-15T17:56:11.208Z,11.11
2019-05-15T17:58:43.934Z,11.05
2019-05-15T18:01:18.759Z,10.89
2019-05-15T18:03:51.154Z,10.80
2019-05-15T18:06:24.150Z,10.63
2019-05-15T18:08:59.110Z,10.57
2019-05-15T18:11:31.335Z,10.41
2019-05-15T18:14:04.081Z,10.19
2019-05-15T18:16:38.187Z,10.05
2019-05-15T18:19:10.999Z,9.89
2019-05-15T18:21:43.853Z,9.77
2019-05-15T18:24:18.454Z,9.63
2019-05-15T18:26:50.865Z,9.53
2019-05-15T18:29:23.413Z,9.38
2019-05-15T18:31:56.061Z,9.08
2019-05-15T18:34:28.850Z,9.01
2019-05-15T18:37:01.489Z,9.08
2019-05-15T18:39:34.180Z,9.09
2019-05-15T18:42:06.879Z,9.16
2019-05-15T18:44:39.481Z,8.96
2019-05-15T18:47:12.207Z,8.98
2019-05-15T18:49:44.800Z,9.09
2019-05-15T18:52:18.186Z,8.74
2019-05-15T18:54:51.167Z,8.39
2019-05-15T18:57:23.863Z,8.17
2019-05-15T18:59:58.049Z,8.08
2019-05-15T19:02:30.944Z,8.09
2019-05-15T19:05:03.577Z,8.09
2019-05-15T19:07:38.313Z,7.86
2019-05-15T19:10:12.473Z,7.62
2019-05-15T19:12:45.364Z,7.76
2019-05-15T19:15:21.205Z,7.51
2019-05-15T19:17:53.994Z,7.27
2019-05-15T19:20:28.100Z,7.07
2019-05-15T19:23:00.959Z,7.62
2019-05-15T19:25:33.653Z,7.91
2019-05-15T19:28:08.406Z,8.01
2019-05-15T19:30:41.389Z,7.80
2019-05-15T19:33:14.474Z,7.54
2019-05-15T19:35:47.663Z,7.40
2019-05-15T19:38:20.331Z,7.24
2019-05-15T19:40:52.996Z,7.12
2019-05-15T19:43:25.734Z,6.89
2019-05-15T19:45:58.584Z,6.71
2019-05-15T19:48:31.249Z,6.50
2019-05-15T19:51:03.930Z,6.16
2019-05-15T19:53:36.622Z,6.02
2019-05-15T19:56:09.396Z,6.11
2019-05-15T19:58:42.093Z,6.20
2019-05-15T20:01:14.774Z,6.04
2019-05-15T20:03:52.820Z,5.98
2019-05-15T20:06:22.088Z,5.82
2019-05-15T20:08:54.773Z,5.61
2019-05-15T20:11:27.905Z,5.62
2019-05-15T20:14:03.252Z,5.58
2019-05-15T20:16:35.937Z,5.41
2019-05-15T20:19:08.836Z,5.40
2019-05-15T20:21:41.827Z,5.27
2019-05-15T20:24:14.445Z,5.39
2019-05-15T20:26:48.636Z,5.04
2019-05-15T20:29:21.405Z,4.83
2019-05-15T20:31:55.882Z,4.79
2019-05-15T20:34:28.751Z,4.60
2019-05-15T20:37:01.580Z,4.82
2019-05-15T20:39:34.246Z,4.68
2019-05-15T20:42:08.815Z,4.48
2019-05-15T20:44:41.275Z,4.36
2019-05-15T20:47:14.322Z,4.19
2019-05-15T20:49:48.514Z,4.34
2019-05-15T20:52:21.842Z,4.28
2019-05-15T20:54:54.576Z,4.13
2019-05-15T20:57:28.314Z,3.86
2019-05-15T21:00:01.112Z,3.63
2019-05-15T21:02:33.773Z,3.58
2019-05-15T21:05:08.675Z,3.74
2019-05-15T21:07:43.274Z,3.71
2019-05-15T21:10:20.143Z,3.58
2019-05-15T21:12:50.400Z,3.51
2019-05-15T21:15:23.159Z,3.57
2019-05-15T21:17:59.544Z,3.54
2019-05-15T21:20:30.090Z,3.29
2019-05-15T21:23:02.661Z,3.10
2019-05-15T21:25:35.466Z,3.14
2019-05-15T21:28:08.396Z,3.16
2019-05-15T21:30:41.237Z,2.95
2019-05-15T21:33:13.927Z,3.07
2019-05-15T21:35:47.710Z,3.13
2019-05-15T21:38:21.392Z,3.00
2019-05-15T21:40:54.009Z,2.99
2019-05-15T21:43:26.650Z,3.03
2019-05-15T21:45:59.303Z,2.95
2019-05-15T21:48:31.990Z,2.97
2019-05-15T21:51:04.674Z,2.79
2019-05-15T21:53:38.883Z,3.11
2019-05-15T21:56:11.593Z,3.17
2019-05-15T21:58:44.354Z,3.00
2019-05-15T22:01:19.660Z,2.95
2019-05-15T22:03:52.245Z,3.09
2019-05-15T22:06:24.824Z,2.92
2019-05-15T22:08:58.369Z,2.86
2019-05-15T22:11:30.940Z,3.17
2019-05-15T22:14:03.714Z,2.93
2019-05-15T22:16:36.272Z,2.80
2019-05-15T22:19:10.653Z,2.59
2019-05-15T22:21:43.436Z,2.62
2019-05-15T22:24:17.710Z,2.64
2019-05-15T22:26:50.237Z,2.51
2019-05-15T22:29:22.920Z,2.57
2019-05-15T22:31:55.606Z,2.44
2019-05-15T22:34:28.518Z,2.35
2019-05-15T22:37:01.258Z,2.40
2019-05-15T22:39:33.948Z,2.44
2019-05-15T22:42:08.282Z,2.42
2019-05-15T22:44:40.969Z,2.53
2019-05-15T22:47:13.632Z,2.65
2019-05-15T22:49:48.436Z,2.44
2019-05-15T22:52:20.496Z,2.46
2019-05-15T22:54:53.079Z,2.28
2019-05-15T22:57:27.958Z,2.12
2019-05-15T23:00:00.044Z,2.16
2019-05-15T23:02:32.621Z,2.21
2019-05-15T23:05:05.590Z,2.11
2019-05-15T23:07:38.987Z,2.21
2019-05-15T23:10:12.335Z,2.07
2019-05-15T23:12:44.967Z,2.07
2019-05-15T23:15:18.878Z,2.12
2019-05-15T23:17:51.742Z,2.07
2019-05-15T23:20:24.371Z,2.04
2019-05-15T23:22:58.371Z,1.89
2019-05-15T23:25:31.321Z,1.82
2019-05-15T23:28:04.071Z,1.88
2019-05-15T23:30:36.706Z,1.82
2019-05-15T23:33:09.403Z,1.87
2019-05-15T23:35:42.055Z,1.92
2019-05-15T23:38:14.365Z,1.77
2019-05-15T23:40:48.318Z,1.76
2019-05-15T23:43:21.127Z,1.75
2019-05-15T23:45:53.771Z,1.69
2019-05-15T23:48:28.421Z,1.76
2019-05-15T23:51:00.735Z,1.76
2019-05-15T23:53:33.348Z,1.90
2019-05-15T23:56:06.069Z,1.79
2019-05-15T23:58:38.657Z,1.70
